createdAt,value
2023-01-13T00:01:26.328Z,19.29
2023-01-13T00:03:53.879Z,19.29
2023-01-13T00:06:25.814Z,19.29
2023-01-13T00:08:54.037Z,19.26
2023-01-13T00:11:22.218Z,19.26
2023-01-13T00:13:49.464Z,19.25
2023-01-13T00:16:18.220Z,19.24
2023-01-13T00:18:46.522Z,19.24
2023-01-13T00:21:15.064Z,19.24
2023-01-13T00:23:43.458Z,19.24
2023-01-13T00:26:16.122Z,19.23
2023-01-13T00:28:43.605Z,19.23
2023-01-13T00:31:12.540Z,19.22
2023-01-13T00:33:40.216Z,19.22
2023-01-13T00:36:09.161Z,19.21
2023-01-13T00:38:37.797Z,19.20
2023-01-13T00:41:07.969Z,19.21
2023-01-13T00:43:36.773Z,19.21
2023-01-13T00:46:06.096Z,19.19
2023-01-13T00:48:34.223Z,19.19
2023-01-13T00:51:06.461Z,19.19
2023-01-13T00:53:39.438Z,19.19
2023-01-13T00:56:19.991Z,19.19
2023-01-13T00:58:52.201Z,19.18
2023-01-13T01:01:22.370Z,19.17
2023-01-13T01:03:54.641Z,19.18
2023-01-13T01:06:24.890Z,19.17
2023-01-13T01:08:53.896Z,19.17
2023-01-13T01:11:24.232Z,19.17
2023-01-13T01:13:52.796Z,19.16
2023-01-13T01:16:21.788Z,19.17
2023-01-13T01:18:50.952Z,19.16
2023-01-13T01:21:19.070Z,19.17
2023-01-13T01:23:46.413Z,19.17
2023-01-13T01:26:15.531Z,19.17
2023-01-13T01:28:43.542Z,19.16
2023-01-13T01:31:17.904Z,19.17
2023-01-13T01:33:48.794Z,19.16
2023-01-13T01:36:19.808Z,19.17
2023-01-13T01:38:47.687Z,19.17
2023-01-13T01:41:17.727Z,19.17
2023-01-13T01:44:08.485Z,19.17
2023-01-13T01:46:44.307Z,19.17
2023-01-13T01:49:23.677Z,19.16
2023-01-13T01:51:57.729Z,19.16
2023-01-13T01:54:38.876Z,19.16
2023-01-13T01:57:11.399Z,19.16
2023-01-13T01:59:39.456Z,19.15
2023-01-13T02:02:08.199Z,19.14
2023-01-13T02:04:40.653Z,19.14
2023-01-13T02:07:08.223Z,19.13
2023-01-13T02:09:36.796Z,19.13
2023-01-13T02:12:22.963Z,19.14
2023-01-13T02:14:50.245Z,19.13
2023-01-13T02:17:32.384Z,19.14
2023-01-13T02:20:34.015Z,19.14
2023-01-13T02:23:48.932Z,19.13
2023-01-13T02:26:16.105Z,19.14
2023-01-13T02:29:37.059Z,19.13
2023-01-13T02:32:20.461Z,19.13
2023-01-13T02:34:55.132Z,19.13
2023-01-13T02:37:29.499Z,19.13
2023-01-13T02:40:01.593Z,19.13
2023-01-13T02:42:57.187Z,19.13
2023-01-13T02:45:28.347Z,19.14
2023-01-13T02:47:58.550Z,19.14
2023-01-13T02:50:32.530Z,19.13
2023-01-13T02:53:05.955Z,19.13
2023-01-13T02:55:46.909Z,19.13
2023-01-13T02:58:20.065Z,19.13
2023-01-13T03:00:49.178Z,19.12
2023-01-13T03:03:16.609Z,19.13
2023-01-13T03:05:46.429Z,19.12
2023-01-13T03:08:21.535Z,19.13
2023-01-13T03:10:54.274Z,19.11
2023-01-13T03:13:27.532Z,19.12
2023-01-13T03:16:08.405Z,19.11
2023-01-13T03:18:45.517Z,19.11
2023-01-13T03:21:34.428Z,19.11
2023-01-13T03:24:02.290Z,19.11
2023-01-13T03:26:55.248Z,19.11
2023-01-13T03:29:36.261Z,19.11
2023-01-13T03:32:15.319Z,19.10
2023-01-13T03:34:50.347Z,19.11
2023-01-13T03:37:22.335Z,19.11
2023-01-13T03:39:57.472Z,19.10
2023-01-13T03:42:28.651Z,19.10
2023-01-13T03:45:10.144Z,19.09
2023-01-13T03:47:55.754Z,19.09
2023-01-13T03:50:28.461Z,19.09
2023-01-13T03:53:01.187Z,19.09
2023-01-13T03:55:36.574Z,19.09
2023-01-13T03:58:14.456Z,19.09
2023-01-13T04:00:55.163Z,19.09
2023-01-13T04:03:42.438Z,19.08
2023-01-13T04:06:16.998Z,19.08
2023-01-13T04:08:52.845Z,19.08
2023-01-13T04:11:30.811Z,19.08
2023-01-13T04:14:00.111Z,19.08
2023-01-13T04:16:27.622Z,19.08
2023-01-13T04:18:55.156Z,19.07
2023-01-13T04:21:22.619Z,19.08
2023-01-13T04:23:51.526Z,19.08
2023-01-13T04:26:19.769Z,19.06
2023-01-13T04:28:47.101Z,19.08
2023-01-13T04:31:14.745Z,19.07
2023-01-13T04:33:42.108Z,19.07
2023-01-13T04:36:09.523Z,19.07
2023-01-13T04:38:36.857Z,19.07
2023-01-13T04:41:04.262Z,19.05
2023-01-13T04:43:31.539Z,19.07
2023-01-13T04:45:58.814Z,19.06
2023-01-13T04:48:26.047Z,19.07
2023-01-13T04:50:53.339Z,19.06
2023-01-13T04:53:20.618Z,19.05
2023-01-13T04:55:49.772Z,19.07
2023-01-13T04:58:17.068Z,19.05
2023-01-13T05:00:44.395Z,19.04
2023-01-13T05:03:11.687Z,19.05
2023-01-13T05:05:38.999Z,19.05
2023-01-13T05:08:06.411Z,19.05
2023-01-13T05:10:33.591Z,19.05
2023-01-13T05:13:19.637Z,19.04
2023-01-13T05:16:06.814Z,19.03
2023-01-13T05:18:34.446Z,19.02
2023-01-13T05:21:01.746Z,19.03
2023-01-13T05:23:47.860Z,19.03
2023-01-13T05:26:15.091Z,19.03
2023-01-13T05:28:42.277Z,19.03
2023-01-13T05:31:09.610Z,19.02
2023-01-13T05:33:36.944Z,19.02
2023-01-13T05:36:05.792Z,19.02
2023-01-13T05:38:33.110Z,19.01
2023-01-13T05:41:19.166Z,19.03
2023-01-13T05:43:46.618Z,19.01
2023-01-13T05:46:14.969Z,19.03
2023-01-13T05:48:42.991Z,19.02
2023-01-13T05:51:11.801Z,19.01
2023-01-13T05:53:40.987Z,19.02
2023-01-13T05:56:09.349Z,19.01
2023-01-13T05:58:37.129Z,19.01
2023-01-13T06:01:07.231Z,19.01
2023-01-13T06:03:35.128Z,19.01
2023-01-13T06:06:04.171Z,19.01
2023-01-13T06:08:32.375Z,19.01
2023-01-13T06:10:59.643Z,19.01
2023-01-13T06:13:27.062Z,19.00
2023-01-13T06:15:59.311Z,19.00
2023-01-13T06:18:28.059Z,19.00
2023-01-13T06:20:55.751Z,19.00
2023-01-13T06:23:23.406Z,19.00
2023-01-13T06:26:04.403Z,18.99
2023-01-13T06:28:33.331Z,18.99
2023-01-13T06:31:05.998Z,18.99
2023-01-13T06:33:43.955Z,19.00
2023-01-13T06:36:18.809Z,19.00
2023-01-13T06:38:49.122Z,19.00
2023-01-13T06:41:17.301Z,18.99
2023-01-13T06:43:44.589Z,19.00
2023-01-13T06:46:11.897Z,18.99
2023-01-13T06:48:39.159Z,19.00
2023-01-13T06:51:06.481Z,18.99
2023-01-13T06:53:34.738Z,19.00
2023-01-13T06:56:01.996Z,18.99
2023-01-13T06:58:29.321Z,18.98
2023-01-13T07:01:00.284Z,18.99
2023-01-13T07:03:27.681Z,18.99
2023-01-13T07:05:56.196Z,18.99
2023-01-13T07:08:24.017Z,18.99
2023-01-13T07:10:51.590Z,18.98
2023-01-13T07:13:37.238Z,18.99
2023-01-13T07:16:06.689Z,18.99
2023-01-13T07:18:35.640Z,18.98
2023-01-13T07:21:08.216Z,18.98
2023-01-13T07:23:39.544Z,18.97
2023-01-13T07:26:08.846Z,18.97
2023-01-13T07:28:36.745Z,18.98
2023-01-13T07:31:04.499Z,18.98
2023-01-13T07:33:34.600Z,18.97
2023-01-13T07:36:05.076Z,18.97
2023-01-13T07:38:34.047Z,18.96
2023-01-13T07:41:22.165Z,18.97
2023-01-13T07:43:50.599Z,18.97
2023-01-13T07:46:18.972Z,18.97
2023-01-13T07:48:47.231Z,18.97
2023-01-13T07:51:14.563Z,18.97
2023-01-13T07:53:41.866Z,18.97
2023-01-13T07:56:09.424Z,18.97
2023-01-13T07:58:37.818Z,18.97
2023-01-13T08:01:13.058Z,18.96
2023-01-13T08:03:41.096Z,18.96
2023-01-13T08:06:09.825Z,18.96
2023-01-13T08:08:38.025Z,18.95
2023-01-13T08:11:07.687Z,18.95
2023-01-13T08:13:34.947Z,18.95
2023-01-13T08:16:05.207Z,18.96
2023-01-13T08:18:33.812Z,18.95
2023-01-13T08:21:03.533Z,18.96
2023-01-13T08:23:30.943Z,18.95
2023-01-13T08:26:03.197Z,18.95
2023-01-13T08:28:31.273Z,18.95
2023-01-13T08:31:07.749Z,18.95
2023-01-13T08:33:35.551Z,18.97
2023-01-13T08:36:07.644Z,18.94
2023-01-13T08:38:35.936Z,18.92
2023-01-13T08:41:36.833Z,18.91
2023-01-13T08:44:05.263Z,18.88
2023-01-13T08:46:32.653Z,18.87
2023-01-13T08:48:59.975Z,18.85
2023-01-13T08:51:27.649Z,18.83
2023-01-13T08:53:54.911Z,18.78
2023-01-13T08:56:23.381Z,18.77
2023-01-13T08:58:50.617Z,18.75
2023-01-13T09:01:21.866Z,18.77
2023-01-13T09:03:49.241Z,18.78
2023-01-13T09:06:17.139Z,18.82
2023-01-13T09:08:45.122Z,18.83
2023-01-13T09:11:38.096Z,18.84
2023-01-13T09:14:05.537Z,18.85
2023-01-13T09:16:32.883Z,18.86
2023-01-13T09:19:00.111Z,18.87
2023-01-13T09:21:27.405Z,18.88
2023-01-13T09:23:54.673Z,18.90
2023-01-13T09:26:21.927Z,18.91
2023-01-13T09:28:49.332Z,18.92
2023-01-13T09:31:16.751Z,18.92
2023-01-13T09:34:02.422Z,18.92
2023-01-13T09:36:29.780Z,18.93
2023-01-13T09:38:57.151Z,18.94
2023-01-13T09:41:45.953Z,18.94
2023-01-13T09:44:59.563Z,18.95
2023-01-13T09:47:34.046Z,18.94
2023-01-13T09:50:21.965Z,18.93
2023-01-13T09:52:49.539Z,18.95
2023-01-13T09:55:22.845Z,18.95
2023-01-13T09:57:50.351Z,18.95
2023-01-13T10:00:37.978Z,18.95
2023-01-13T10:03:23.784Z,18.94
2023-01-13T10:05:56.600Z,18.96
2023-01-13T10:08:28.317Z,18.95
2023-01-13T10:10:59.490Z,18.96
2023-01-13T10:13:30.713Z,18.95
2023-01-13T10:16:19.480Z,18.94
2023-01-13T10:18:58.988Z,18.95
2023-01-13T10:21:32.164Z,18.96
2023-01-13T10:24:04.266Z,18.95
2023-01-13T10:26:56.044Z,18.96
2023-01-13T10:29:28.737Z,18.95
2023-01-13T10:31:57.758Z,18.96
2023-01-13T10:34:26.179Z,18.95
2023-01-13T10:37:03.100Z,18.96
2023-01-13T10:39:40.890Z,18.94
2023-01-13T10:42:17.378Z,18.95
2023-01-13T10:45:19.243Z,18.95
2023-01-13T10:48:06.351Z,18.95
2023-01-13T10:50:36.284Z,18.95
2023-01-13T10:53:18.478Z,18.95
2023-01-13T10:55:59.882Z,18.95
2023-01-13T10:58:28.226Z,18.95
2023-01-13T11:01:01.127Z,18.94
2023-01-13T11:03:41.551Z,18.94
2023-01-13T11:06:19.105Z,18.96
2023-01-13T11:08:49.672Z,18.95
2023-01-13T11:11:47.470Z,18.97
2023-01-13T11:14:33.141Z,18.96
2023-01-13T11:17:05.700Z,18.96
2023-01-13T11:19:37.894Z,18.97
2023-01-13T11:22:37.566Z,18.96
2023-01-13T11:25:10.520Z,18.96
2023-01-13T11:27:58.840Z,18.96
2023-01-13T11:30:50.892Z,18.95
2023-01-13T11:34:03.578Z,18.95
2023-01-13T11:36:53.998Z,18.96
2023-01-13T11:39:49.045Z,18.95
2023-01-13T11:42:32.030Z,18.95
2023-01-13T11:45:17.382Z,18.94
2023-01-13T11:47:52.608Z,18.92
2023-01-13T11:50:34.238Z,18.87
2023-01-13T11:53:22.790Z,18.87
2023-01-13T11:55:58.939Z,18.88
2023-01-13T11:58:59.129Z,18.88
2023-01-13T12:01:54.926Z,18.89
2023-01-13T12:04:33.374Z,18.90
2023-01-13T12:07:16.443Z,18.90
2023-01-13T12:10:04.505Z,18.91
2023-01-13T12:12:37.176Z,18.90
2023-01-13T12:15:22.500Z,18.90
2023-01-13T12:18:14.728Z,18.90
2023-01-13T12:21:04.184Z,18.90
2023-01-13T12:24:13.789Z,18.89
2023-01-13T12:26:46.376Z,18.89
2023-01-13T12:29:19.708Z,18.88
2023-01-13T12:31:49.290Z,18.89
2023-01-13T12:34:42.231Z,18.89
2023-01-13T12:37:21.029Z,18.89
2023-01-13T12:39:54.154Z,18.89
2023-01-13T12:42:46.297Z,18.90
2023-01-13T12:45:13.404Z,18.90
2023-01-13T12:47:48.361Z,18.92
2023-01-13T12:50:24.878Z,18.93
2023-01-13T12:53:19.436Z,18.93
2023-01-13T12:55:52.119Z,18.93
2023-01-13T12:58:28.176Z,18.94
2023-01-13T13:01:13.095Z,18.94
2023-01-13T13:03:41.547Z,18.95
2023-01-13T13:06:21.934Z,18.94
2023-01-13T13:09:04.500Z,18.95
2023-01-13T13:11:57.937Z,18.95
2023-01-13T13:14:37.370Z,18.95
2023-01-13T13:17:25.520Z,18.94
2023-01-13T13:19:52.847Z,18.94
2023-01-13T13:22:29.824Z,18.94
2023-01-13T13:24:59.667Z,18.94
2023-01-13T13:27:45.456Z,18.93
2023-01-13T13:30:36.428Z,18.92
2023-01-13T13:33:39.232Z,18.93
2023-01-13T13:36:30.215Z,18.92
2023-01-13T13:39:22.017Z,18.92
2023-01-13T13:42:12.595Z,18.92
2023-01-13T13:45:01.441Z,18.91
2023-01-13T13:47:36.564Z,18.92
2023-01-13T13:50:20.794Z,18.91
2023-01-13T13:53:09.305Z,18.91
2023-01-13T13:55:36.768Z,18.92
2023-01-13T13:58:04.210Z,18.92
2023-01-13T14:00:35.528Z,18.93
2023-01-13T14:03:28.918Z,18.93
2023-01-13T14:06:00.840Z,18.95
2023-01-13T14:08:30.847Z,18.95
2023-01-13T14:10:58.171Z,18.95
2023-01-13T14:13:30.744Z,18.95
2023-01-13T14:16:00.871Z,18.96
2023-01-13T14:18:30.782Z,18.95
2023-01-13T14:21:13.923Z,18.94
2023-01-13T14:23:52.080Z,18.96
2023-01-13T14:26:27.693Z,18.95
2023-01-13T14:28:56.434Z,18.95
2023-01-13T14:31:24.704Z,18.95
2023-01-13T14:33:54.963Z,18.95
2023-01-13T14:36:36.714Z,18.94
2023-01-13T14:39:03.997Z,18.93
2023-01-13T14:41:47.014Z,18.93
2023-01-13T14:44:28.110Z,18.91
2023-01-13T14:46:59.065Z,18.92
2023-01-13T14:49:31.891Z,18.92
2023-01-13T14:52:09.820Z,18.92
2023-01-13T14:54:52.080Z,18.93
2023-01-13T14:57:31.938Z,18.93
2023-01-13T15:00:13.493Z,18.94
2023-01-13T15:02:59.065Z,18.94
2023-01-13T15:05:26.384Z,18.94
2023-01-13T15:08:00.059Z,18.94
2023-01-13T15:10:38.938Z,18.95
2023-01-13T15:13:07.860Z,18.96
2023-01-13T15:15:37.843Z,18.96
2023-01-13T15:18:13.946Z,18.97
2023-01-13T15:20:42.289Z,18.98
2023-01-13T15:23:10.050Z,18.98
2023-01-13T15:25:43.009Z,18.98
2023-01-13T15:28:18.997Z,18.98
2023-01-13T15:30:47.328Z,18.97
2023-01-13T15:33:15.779Z,18.98
2023-01-13T15:35:46.927Z,18.98
2023-01-13T15:38:23.762Z,18.98
2023-01-13T15:40:52.713Z,18.99
2023-01-13T15:43:40.675Z,18.98
2023-01-13T15:46:38.989Z,18.99
2023-01-13T15:49:15.034Z,19.00
2023-01-13T15:51:44.215Z,19.00
2023-01-13T15:54:12.057Z,19.01
2023-01-13T15:56:39.606Z,19.00
2023-01-13T15:59:15.947Z,18.99
2023-01-13T16:01:43.966Z,18.99
2023-01-13T16:04:11.201Z,19.00
2023-01-13T16:06:38.526Z,18.99
2023-01-13T16:09:06.255Z,18.98
2023-01-13T16:11:33.496Z,18.97
2023-01-13T16:14:00.804Z,18.97
2023-01-13T16:16:28.827Z,18.95
2023-01-13T16:18:56.509Z,18.96
2023-01-13T16:21:24.587Z,18.95
2023-01-13T16:23:52.291Z,18.94
2023-01-13T16:26:25.774Z,18.95
2023-01-13T16:28:56.124Z,18.95
2023-01-13T16:31:32.014Z,18.94
2023-01-13T16:34:01.387Z,18.95
2023-01-13T16:36:30.386Z,18.95
2023-01-13T16:38:57.702Z,18.95
2023-01-13T16:41:25.261Z,18.95
2023-01-13T16:43:53.393Z,18.95
2023-01-13T16:46:26.282Z,18.96
2023-01-13T16:48:57.168Z,18.95
2023-01-13T16:51:24.781Z,18.96
2023-01-13T16:53:52.138Z,18.95
2023-01-13T16:56:28.271Z,18.94
2023-01-13T16:58:57.758Z,18.95
2023-01-13T17:01:30.826Z,18.94
2023-01-13T17:03:58.856Z,18.95
2023-01-13T17:06:35.556Z,18.94
2023-01-13T17:09:17.360Z,18.93
2023-01-13T17:11:45.026Z,18.94
2023-01-13T17:14:19.315Z,18.94
2023-01-13T17:16:47.828Z,18.93
2023-01-13T17:19:15.501Z,18.92
2023-01-13T17:21:42.845Z,18.93
2023-01-13T17:24:12.283Z,18.92
2023-01-13T17:26:47.524Z,18.92
2023-01-13T17:29:21.863Z,18.91
2023-01-13T17:31:50.479Z,18.92
2023-01-13T17:34:18.709Z,18.91
2023-01-13T17:36:46.139Z,18.91
2023-01-13T17:39:16.612Z,18.91
2023-01-13T17:41:44.667Z,18.92
2023-01-13T17:44:17.144Z,18.90
2023-01-13T17:46:45.390Z,18.91
2023-01-13T17:49:13.761Z,18.91
2023-01-13T17:51:41.176Z,18.90
2023-01-13T17:54:12.363Z,18.89
2023-01-13T17:56:43.203Z,18.89
2023-01-13T17:59:15.264Z,18.89
2023-01-13T18:01:42.797Z,18.90
2023-01-13T18:04:16.553Z,18.90
2023-01-13T18:06:44.414Z,18.89
2023-01-13T18:09:12.436Z,18.89
2023-01-13T18:11:39.793Z,18.89
2023-01-13T18:14:07.165Z,18.89
2023-01-13T18:16:34.856Z,18.89
2023-01-13T18:19:20.935Z,18.88
2023-01-13T18:22:06.923Z,18.90
2023-01-13T18:24:53.023Z,18.89
2023-01-13T18:27:27.348Z,18.88
2023-01-13T18:29:58.325Z,18.89
2023-01-13T18:32:31.921Z,18.88
2023-01-13T18:35:06.114Z,18.89
2023-01-13T18:37:38.832Z,18.88
2023-01-13T18:40:09.308Z,18.89
2023-01-13T18:42:53.736Z,18.89
2023-01-13T18:45:27.145Z,18.89
2023-01-13T18:47:58.769Z,18.89
2023-01-13T18:50:27.135Z,18.89
2023-01-13T18:52:54.570Z,18.90
2023-01-13T18:55:22.128Z,18.89
2023-01-13T18:57:54.277Z,18.89
2023-01-13T19:00:23.036Z,18.89
2023-01-13T19:05:34.948Z,18.89
2023-01-13T19:08:02.537Z,18.88
2023-01-13T19:10:32.345Z,18.88
2023-01-13T19:13:01.391Z,18.87
2023-01-13T19:15:28.781Z,18.87
2023-01-13T19:17:56.231Z,18.86
2023-01-13T19:20:23.514Z,18.87
2023-01-13T19:22:54.289Z,18.86
2023-01-13T19:25:21.884Z,18.87
2023-01-13T19:27:49.239Z,18.85
2023-01-13T19:30:17.533Z,18.88
2023-01-13T19:32:44.826Z,18.86
2023-01-13T19:35:14.101Z,18.87
2023-01-13T19:37:43.683Z,18.86
2023-01-13T19:40:13.880Z,18.86
2023-01-13T19:43:01.935Z,18.86
2023-01-13T19:45:32.046Z,18.86
2023-01-13T19:48:05.061Z,18.86
2023-01-13T19:50:36.561Z,18.86
2023-01-13T19:53:04.108Z,18.86
2023-01-13T19:55:32.105Z,18.85
2023-01-13T19:57:59.439Z,18.84
2023-01-13T20:00:27.004Z,18.85
2023-01-13T20:02:56.687Z,18.85
2023-01-13T20:05:26.023Z,18.86
2023-01-13T20:07:53.969Z,18.87
2023-01-13T20:10:23.200Z,18.86
2023-01-13T20:12:50.502Z,18.87
2023-01-13T20:15:17.807Z,18.88
2023-01-13T20:17:45.120Z,18.87
2023-01-13T20:20:13.657Z,18.89
2023-01-13T20:22:41.483Z,18.91
2023-01-13T20:25:09.423Z,18.91
2023-01-13T20:27:37.037Z,18.90
2023-01-13T20:30:09.539Z,18.92
2023-01-13T20:32:37.198Z,18.92
2023-01-13T20:35:05.481Z,18.94
2023-01-13T20:37:33.645Z,18.93
2023-01-13T20:40:01.841Z,18.93
2023-01-13T20:42:34.251Z,18.92
2023-01-13T20:45:01.721Z,18.92
2023-01-13T20:47:30.179Z,18.91
2023-01-13T20:49:57.621Z,18.89
2023-01-13T20:52:25.112Z,18.90
2023-01-13T20:54:52.356Z,18.89
2023-01-13T20:57:19.741Z,18.89
2023-01-13T20:59:47.164Z,18.89
2023-01-13T21:02:16.155Z,18.90
2023-01-13T21:04:44.063Z,18.90
2023-01-13T21:07:11.463Z,18.90
2023-01-13T21:09:38.686Z,18.92
2023-01-13T21:12:25.226Z,18.90
2023-01-13T21:15:10.827Z,18.89
2023-01-13T21:17:57.258Z,18.92
2023-01-13T21:20:24.564Z,18.90
2023-01-13T21:22:51.902Z,18.89
2023-01-13T21:25:19.986Z,18.91
2023-01-13T21:27:48.101Z,18.92
2023-01-13T21:30:17.271Z,18.92
2023-01-13T21:32:45.648Z,18.91
2023-01-13T21:35:14.249Z,18.91
2023-01-13T21:37:44.248Z,18.93
2023-01-13T21:40:13.766Z,18.93
2023-01-13T21:42:59.670Z,18.94
2023-01-13T21:45:45.961Z,18.93
2023-01-13T21:48:13.233Z,18.94
2023-01-13T21:50:40.945Z,18.94
2023-01-13T21:53:08.373Z,18.94
2023-01-13T21:55:36.915Z,18.93
2023-01-13T21:58:13.417Z,18.94
2023-01-13T22:00:42.640Z,18.93
2023-01-13T22:03:12.122Z,18.94
2023-01-13T22:05:40.142Z,18.93
2023-01-13T22:08:07.548Z,18.94
2023-01-13T22:10:35.219Z,18.94
2023-01-13T22:13:23.584Z,18.94
2023-01-13T22:15:51.002Z,18.95
2023-01-13T22:18:18.479Z,18.95
2023-01-13T22:20:46.031Z,18.96
2023-01-13T22:23:13.685Z,18.96
2023-01-13T22:25:40.959Z,18.96
2023-01-13T22:28:09.428Z,18.96
2023-01-13T22:30:36.910Z,18.97
2023-01-13T22:33:04.130Z,18.97
2023-01-13T22:35:31.403Z,18.97
2023-01-13T22:38:00.914Z,18.98
2023-01-13T22:40:28.186Z,18.99
2023-01-13T22:42:55.469Z,19.00
2023-01-13T22:45:22.852Z,18.99
2023-01-13T22:47:50.159Z,19.01
2023-01-13T22:50:20.757Z,19.01
2023-01-13T22:52:48.152Z,19.01
2023-01-13T22:55:15.568Z,19.01
2023-01-13T22:57:47.971Z,19.01
2023-01-13T23:00:19.065Z,19.00
2023-01-13T23:02:46.912Z,19.00
2023-01-13T23:05:14.291Z,18.99
2023-01-13T23:07:41.585Z,18.99
2023-01-13T23:10:09.480Z,18.99
2023-01-13T23:12:37.015Z,19.01
2023-01-13T23:15:05.314Z,19.02
2023-01-13T23:17:32.722Z,19.03
2023-01-13T23:19:59.953Z,19.02
2023-01-13T23:22:27.359Z,19.03
2023-01-13T23:24:54.661Z,19.02
2023-01-13T23:27:21.932Z,19.02
2023-01-13T23:29:49.427Z,19.00
2023-01-13T23:32:16.651Z,19.00
2023-01-13T23:34:43.855Z,19.01
2023-01-13T23:37:11.101Z,19.02
2023-01-13T23:39:38.349Z,19.01
2023-01-13T23:42:05.643Z,19.02
2023-01-13T23:44:32.943Z,19.00
2023-01-13T23:47:00.253Z,19.02
2023-01-13T23:49:27.557Z,19.01
2023-01-13T23:51:55.023Z,19.02
2023-01-13T23:54:22.472Z,19.03
2023-01-13T23:56:52.497Z,19.03
2023-01-13T23:59:20.917Z,19.03
